OERK/RUH METAR and TAF weather

Enter ICAO airport designator
Station Type Date Time Source
OERK METAR 2019/12/10 06:00 UTC NOAA

OERK 100600Z 13007KT 2000 BR OVC004 17/15 Q1019 TEMPO 1500 TSRA


Station Type Date Time Source
OERK Decoded METAR 2019/12/10 06:00 UTC NOAA

King Khaled International Airport, Saudi Arabia (OERK) 24-56N 046-43E 612M
Dec 10, 2019 - 01:00 AM EST / 2019.12.10 0600 UTC
Wind: from the SE (130 degrees) at 8 MPH (7 KT):0
Visibility: 1 mile(s):0
Sky conditions: overcast
Weather: mist
Temperature: 62 F (17 C)
Dew Point: 59 F (15 C)
Relative Humidity: 88%
Pressure (altimeter): 30.09 in. Hg (1019 hPa)
ob: OERK 100600Z 13007KT 2000 BR OVC004 17/15 Q1019 TEMPO 1500 TSRA
cycle: 6

Station Type Date Time Source
OERK TAF 2019/12/10 06:06 UTC NOAA

TAF OERK 100500Z 1006/1112 15012KT 7000 SCT040 BKN080
TEMPO 1006/1016 5000 BLDU TSRA FEW035CB BKN040
BECMG 1017/1019 09008KT 6000 SCT040
BECMG 1105/1107 34010KT

Example: see airport list